Time;durP1;ratioP1;P1;durP2;ratioP2;P2;SDS_P1;SDS_P2;PMS_P1;PMS_P2;Temp;Humidity;BMP_temperature;BMP_pressure;BME280_temperature;BME280_humidity;BME280_pressure;Samples;Min_cycle;Max_cycle;Signal;HPM_P1;HPM_P2
2023/12/25 00:01:02;;;;;;;;;;;;;;;;;;5020261;28;20398;-67
2023/12/25 00:03:27;;;;;;;;;;;;;;;;;;5029021;28;19918;-67
2023/12/25 00:05:52;;;;;;;;;;;;;;;;;;5015758;28;20272;-67
2023/12/25 00:08:17;;;;;;;;;;;;;;;;;;5009204;28;19961;-67
2023/12/25 00:10:42;;;;;;;;;;;;;;;;;;5015339;28;19983;-67
2023/12/25 00:13:07;;;;;;;;;;;;;;;;;;5014931;28;20386;-67
2023/12/25 00:15:32;;;;;;;;;;;;;;;;;;5016582;28;19921;-66
2023/12/25 00:17:58;;;;;;;;;;;;;;;;;;5011941;28;19928;-66
2023/12/25 00:20:23;;;;;;;;;;;;;;;;;;5011074;28;19996;-66
2023/12/25 00:22:48;;;;;;;;;;;;;;;;;;5012886;28;19921;-67
2023/12/25 00:25:13;;;;;;;;;;;;;;;;;;5012443;28;19927;-66
2023/12/25 00:27:38;;;;;;;;;;;;;;;;;;5015425;28;19925;-66
2023/12/25 00:30:03;;;;;;;;;;;;;;;;;;5011885;28;19921;-67
2023/12/25 00:32:28;;;;;;;;;;;;;;;;;;5009658;28;19953;-67
2023/12/25 00:34:53;;;;;;;;;;;;;;;;;;5005897;28;19928;-66
2023/12/25 00:37:18;;;;;;;;;;;;;;;;;;5015030;28;19928;-66
2023/12/25 00:39:45;;;;;;;;;;;;;;;;;;5008960;28;19929;-66
2023/12/25 00:42:10;;;;;;;;;;;;;;;;;;5010191;28;19987;-67
2023/12/25 00:44:35;;;;;;;;;;;;;;;;;;5009214;28;19925;-66
2023/12/25 00:47:00;;;;;;;;;;;;;;;;;;5010744;28;20004;-67
2023/12/25 00:49:25;;;;;;;;;;;;;;;;;;5010046;28;19922;-67
2023/12/25 00:51:50;;;;;;;;;;;;;;;;;;5017197;28;19931;-67
2023/12/25 00:54:15;;;;;;;;;;;;;;;;;;5012325;28;19982;-67
2023/12/25 00:56:41;;;;;;;;;;;;;;;;;;5011155;28;20371;-66
2023/12/25 00:59:06;;;;;;;;;;;;;;;;;;5010343;28;19929;-66
2023/12/25 01:01:31;;;;;;;;;;;;;;;;;;5009902;28;19928;-66
2023/12/25 01:03:57;;;;;;;;;;;;;;;;;;5010631;28;20402;-66
2023/12/25 01:06:22;;;;;;;;;;;;;;;;;;5009654;28;19929;-66
2023/12/25 01:08:47;;;;;;;;;;;;;;;;;;5008617;28;19939;-67
2023/12/25 01:11:12;;;;;;;;;;;;;;;;;;5026002;28;19949;-66
2023/12/25 01:13:37;;;;;;;;;;;;;;;;;;5013052;28;19964;-66
2023/12/25 01:16:02;;;;;;;;;;;;;;;;;;5010516;28;20004;-67
2023/12/25 01:18:27;;;;;;;;;;;;;;;;;;5009624;28;19922;-67
2023/12/25 01:20:52;;;;;;;;;;;;;;;;;;5021851;28;19924;-67
2023/12/25 01:23:17;;;;;;;;;;;;;;;;;;5022305;28;19924;-67
2023/12/25 01:25:43;;;;;;;;;;;;;;;;;;5018989;28;20002;-67
2023/12/25 01:28:08;;;;;;;;;;;;;;;;;;5017237;28;20000;-67
2023/12/25 01:30:33;;;;;;;;;;;;;;;;;;5018051;28;19922;-68
2023/12/25 01:32:58;;;;;;;;;;;;;;;;;;5010663;28;19921;-68
2023/12/25 01:35:23;;;;;;;;;;;;;;;;;;5009425;28;19922;-68
2023/12/25 01:37:48;;;;;;;;;;;;;;;;;;5013161;28;19937;-68
2023/12/25 01:40:13;;;;;;;;;;;;;;;;;;5009913;28;19975;-68
2023/12/25 01:42:38;;;;;;;;;;;;;;;;;;5015915;28;19921;-67
2023/12/25 01:45:03;;;;;;;;;;;;;;;;;;5006814;28;20398;-67
2023/12/25 01:47:29;;;;;;;;;;;;;;;;;;5012044;28;20020;-67
2023/12/25 01:49:54;;;;;;;;;;;;;;;;;;5011647;28;19925;-68
2023/12/25 01:52:19;;;;;;;;;;;;;;;;;;5004906;28;19995;-68
2023/12/25 01:54:44;;;;;;;;;;;;;;;;;;5009578;28;20435;-67
2023/12/25 01:57:09;;;;;;;;;;;;;;;;;;5011490;28;19953;-67
2023/12/25 01:59:34;;;;;;;;;;;;;;;;;;5010176;28;20608;-68
2023/12/25 02:01:59;;;;;;;;;;;;;;;;;;5017235;28;19921;-67
2023/12/25 02:04:24;;;;;;;;;;;;;;;;;;5027502;28;19925;-66
2023/12/25 02:06:50;;;;;;;;;;;;;;;;;;5018733;28;19926;-66
2023/12/25 02:09:15;;;;;;;;;;;;;;;;;;5015180;28;19947;-67
2023/12/25 02:11:41;;;;;;;;;;;;;;;;;;5024733;28;19921;-67
2023/12/25 02:14:06;;;;;;;;;;;;;;;;;;5014051;28;19932;-68
2023/12/25 02:16:32;;;;;;;;;;;;;;;;;;5020652;28;19923;-67
2023/12/25 02:18:57;;;;;;;;;;;;;;;;;;5020094;28;20475;-68
2023/12/25 02:21:22;;;;;;;;;;;;;;;;;;5008381;28;19935;-68
2023/12/25 02:23:47;;;;;;;;;;;;;;;;;;5022721;28;19921;-68
2023/12/25 02:26:12;;;;;;;;;;;;;;;;;;5011974;28;19925;-67
2023/12/25 02:28:37;;;;;;;;;;;;;;;;;;5014310;28;20405;-68
2023/12/25 02:31:03;;;;;;;;;;;;;;;;;;5023119;28;19928;-67
2023/12/25 02:33:28;;;;;;;;;;;;;;;;;;5024201;28;19932;-68
2023/12/25 02:35:53;;;;;;;;;;;;;;;;;;5022186;28;19929;-67
2023/12/25 02:38:19;;;;;;;;;;;;;;;;;;5020258;28;19948;-67
2023/12/25 02:40:44;;;;;;;;;;;;;;;;;;5028954;28;19921;-67
2023/12/25 02:43:09;;;;;;;;;;;;;;;;;;5030132;28;19921;-67
2023/12/25 02:45:34;;;;;;;;;;;;;;;;;;5021779;28;20328;-68
2023/12/25 02:47:59;;;;;;;;;;;;;;;;;;5029774;28;19917;-67
2023/12/25 02:50:24;;;;;;;;;;;;;;;;;;5021413;28;19917;-67
2023/12/25 02:52:49;;;;;;;;;;;;;;;;;;5027860;28;19921;-67
2023/12/25 02:55:14;;;;;;;;;;;;;;;;;;5029967;28;19966;-67
2023/12/25 02:57:39;;;;;;;;;;;;;;;;;;5029917;28;19917;-67
2023/12/25 03:00:05;;;;;;;;;;;;;;;;;;5025147;28;19924;-66
2023/12/25 03:02:30;;;;;;;;;;;;;;;;;;5019972;28;20267;-66
2023/12/25 03:04:55;;;;;;;;;;;;;;;;;;5029328;28;19999;-67
2023/12/25 03:07:20;;;;;;;;;;;;;;;;;;5029767;28;19990;-67
2023/12/25 03:09:45;;;;;;;;;;;;;;;;;;5029711;28;20011;-66
2023/12/25 03:12:10;;;;;;;;;;;;;;;;;;5029701;28;20370;-66
2023/12/25 03:14:35;;;;;;;;;;;;;;;;;;5020772;28;19924;-67
2023/12/25 03:17:01;;;;;;;;;;;;;;;;;;5022535;28;19917;-67
2023/12/25 03:19:26;;;;;;;;;;;;;;;;;;5029181;28;19916;-67
2023/12/25 03:21:51;;;;;;;;;;;;;;;;;;5020119;28;20420;-66
2023/12/25 03:24:16;;;;;;;;;;;;;;;;;;5027506;28;19947;-67
2023/12/25 03:26:42;;;;;;;;;;;;;;;;;;5021130;28;19928;-66
2023/12/25 03:29:08;;;;;;;;;;;;;;;;;;5029199;28;20116;-67
2023/12/25 03:31:33;;;;;;;;;;;;;;;;;;5024348;28;19922;-67
2023/12/25 03:33:58;;;;;;;;;;;;;;;;;;5029171;28;19924;-66
2023/12/25 03:36:23;;;;;;;;;;;;;;;;;;5028859;28;19921;-67
2023/12/25 03:38:48;;;;;;;;;;;;;;;;;;5028882;28;19992;-67
2023/12/25 03:41:14;;;;;;;;;;;;;;;;;;5029451;28;19917;-66
2023/12/25 03:43:40;;;;;;;;;;;;;;;;;;5028346;28;19917;-66
2023/12/25 03:46:05;;;;;;;;;;;;;;;;;;5028736;28;20416;-67
2023/12/25 03:48:30;;;;;;;;;;;;;;;;;;5028806;28;19917;-67
2023/12/25 03:50:55;;;;;;;;;;;;;;;;;;5029260;28;19917;-67
2023/12/25 03:53:20;;;;;;;;;;;;;;;;;;5029684;28;19928;-67
2023/12/25 03:55:45;;;;;;;;;;;;;;;;;;5029973;28;19925;-66
2023/12/25 03:58:10;;;;;;;;;;;;;;;;;;5025946;28;19918;-67
2023/12/25 04:00:35;;;;;;;;;;;;;;;;;;5032188;28;19917;-67
2023/12/25 04:03:00;;;;;;;;;;;;;;;;;;5026000;28;19921;-66
2023/12/25 04:05:26;;;;;;;;;;;;;;;;;;5007937;28;20401;-66
2023/12/25 04:07:51;;;;;;;;;;;;;;;;;;5032102;28;19957;-66
2023/12/25 04:10:16;;;;;;;;;;;;;;;;;;5031878;28;20397;-67
2023/12/25 04:12:41;;;;;;;;;;;;;;;;;;5024083;28;19929;-67
2023/12/25 04:15:06;;;;;;;;;;;;;;;;;;5017206;28;19917;-67
2023/12/25 04:17:31;;;;;;;;;;;;;;;;;;5024514;28;19924;-66
2023/12/25 04:19:56;;;;;;;;;;;;;;;;;;5031815;28;19924;-66
2023/12/25 04:22:21;;;;;;;;;;;;;;;;;;5017213;28;20290;-66
2023/12/25 04:24:47;;;;;;;;;;;;;;;;;;5028726;28;19967;-67
2023/12/25 04:27:12;;;;;;;;;;;;;;;;;;5023500;28;19925;-67
2023/12/25 04:29:37;;;;;;;;;;;;;;;;;;5031713;28;19952;-67
2023/12/25 04:32:02;;;;;;;;;;;;;;;;;;5032480;28;20004;-67
2023/12/25 04:34:27;;;;;;;;;;;;;;;;;;5029593;28;19917;-67
2023/12/25 04:36:52;;;;;;;;;;;;;;;;;;5030966;28;20534;-68
2023/12/25 04:39:17;;;;;;;;;;;;;;;;;;5031335;28;20333;-67
2023/12/25 04:41:42;;;;;;;;;;;;;;;;;;5031681;28;19923;-68
2023/12/25 04:44:08;;;;;;;;;;;;;;;;;;5024547;28;20390;-68
2023/12/25 04:46:33;;;;;;;;;;;;;;;;;;5029831;28;20384;-67
2023/12/25 04:48:58;;;;;;;;;;;;;;;;;;5031260;28;20052;-68
2023/12/25 04:51:23;;;;;;;;;;;;;;;;;;5031374;28;19991;-67
2023/12/25 04:53:48;;;;;;;;;;;;;;;;;;5020404;28;20283;-67
2023/12/25 04:56:14;;;;;;;;;;;;;;;;;;5031102;28;19921;-67
2023/12/25 04:58:39;;;;;;;;;;;;;;;;;;5031413;28;20571;-68
2023/12/25 05:01:04;;;;;;;;;;;;;;;;;;5022486;28;19925;-67
2023/12/25 05:03:29;;;;;;;;;;;;;;;;;;5024081;28;19917;-68
2023/12/25 05:05:55;;;;;;;;;;;;;;;;;;5043661;28;19982;-68
2023/12/25 05:08:20;;;;;;;;;;;;;;;;;;5029894;28;19921;-67
2023/12/25 05:10:45;;;;;;;;;;;;;;;;;;5022247;28;20408;-67
2023/12/25 05:13:10;;;;;;;;;;;;;;;;;;5019595;28;20606;-68
2023/12/25 05:15:35;;;;;;;;;;;;;;;;;;5026717;28;20328;-68
2023/12/25 05:18:00;;;;;;;;;;;;;;;;;;5027032;28;19918;-68
2023/12/25 05:20:25;;;;;;;;;;;;;;;;;;5017918;28;20004;-68
2023/12/25 05:22:50;;;;;;;;;;;;;;;;;;5027480;28;19917;-67
2023/12/25 05:25:16;;;;;;;;;;;;;;;;;;5028451;28;19921;-68
2023/12/25 05:27:41;;;;;;;;;;;;;;;;;;5021102;28;20294;-68
2023/12/25 05:30:06;;;;;;;;;;;;;;;;;;5021188;28;20051;-68
2023/12/25 05:32:31;;;;;;;;;;;;;;;;;;5029654;28;20329;-68
2023/12/25 05:34:56;;;;;;;;;;;;;;;;;;5029391;28;19917;-67
2023/12/25 05:37:21;;;;;;;;;;;;;;;;;;5021835;28;19924;-67
2023/12/25 05:39:46;;;;;;;;;;;;;;;;;;5018294;28;20337;-67
2023/12/25 05:42:11;;;;;;;;;;;;;;;;;;5022104;28;19917;-67
2023/12/25 05:44:36;;;;;;;;;;;;;;;;;;5020381;28;19925;-66
2023/12/25 05:47:02;;;;;;;;;;;;;;;;;;5012929;28;19921;-67
2023/12/25 05:49:27;;;;;;;;;;;;;;;;;;5028924;28;19967;-67
2023/12/25 05:51:53;;;;;;;;;;;;;;;;;;5020933;28;20293;-66
2023/12/25 05:54:18;;;;;;;;;;;;;;;;;;5024050;28;20354;-68
2023/12/25 05:56:43;;;;;;;;;;;;;;;;;;5029491;28;20398;-67
2023/12/25 05:59:08;;;;;;;;;;;;;;;;;;5029177;28;19917;-66
2023/12/25 06:01:33;;;;;;;;;;;;;;;;;;5022357;28;19966;-67
2023/12/25 06:04:00;;;;;;;;;;;;;;;;;;5037872;28;19918;-66
2023/12/25 06:06:25;;;;;;;;;;;;;;;;;;5029765;28;19976;-67
2023/12/25 06:08:51;;;;;;;;;;;;;;;;;;5029819;28;19921;-67
2023/12/25 06:11:16;;;;;;;;;;;;;;;;;;5030379;28;19917;-66
2023/12/25 06:13:41;;;;;;;;;;;;;;;;;;5018920;28;20317;-66
2023/12/25 06:16:06;;;;;;;;;;;;;;;;;;5028822;28;20386;-67
2023/12/25 06:18:31;;;;;;;;;;;;;;;;;;5030345;28;19917;-67
2023/12/25 06:20:56;;;;;;;;;;;;;;;;;;5026954;28;20009;-67
2023/12/25 06:23:21;;;;;;;;;;;;;;;;;;5024092;28;19929;-67
2023/12/25 06:25:46;;;;;;;;;;;;;;;;;;5030056;28;19921;-67
2023/12/25 06:28:12;;;;;;;;;;;;;;;;;;5021558;28;19957;-68
2023/12/25 06:30:37;;;;;;;;;;;;;;;;;;5030330;28;20286;-67
2023/12/25 06:33:02;;;;;;;;;;;;;;;;;;5019817;28;19925;-66
2023/12/25 06:35:27;;;;;;;;;;;;;;;;;;5024731;28;19917;-67
2023/12/25 06:37:52;;;;;;;;;;;;;;;;;;5021741;28;20532;-67
2023/12/25 06:40:17;;;;;;;;;;;;;;;;;;5028948;28;19963;-67
2023/12/25 06:42:42;;;;;;;;;;;;;;;;;;5030430;28;19917;-67
2023/12/25 06:45:08;;;;;;;;;;;;;;;;;;5027435;28;19936;-66
2023/12/25 06:47:34;;;;;;;;;;;;;;;;;;5030053;28;20029;-67
2023/12/25 06:49:59;;;;;;;;;;;;;;;;;;5029340;28;19991;-67
2023/12/25 06:52:24;;;;;;;;;;;;;;;;;;5029067;28;19968;-66
2023/12/25 06:54:52;;;;;;;;;;;;;;;;;;5023200;28;22364;-66
2023/12/25 06:57:17;;;;;;;;;;;;;;;;;;5030033;28;20373;-66
2023/12/25 06:59:42;;;;;;;;;;;;;;;;;;5027654;28;19959;-67
2023/12/25 07:02:07;;;;;;;;;;;;;;;;;;5020303;28;19964;-67
2023/12/25 07:04:32;;;;;;;;;;;;;;;;;;5021180;28;20287;-67
2023/12/25 07:06:58;;;;;;;;;;;;;;;;;;5029312;28;19929;-67
2023/12/25 07:09:23;;;;;;;;;;;;;;;;;;5029355;28;20436;-67
2023/12/25 07:11:48;;;;;;;;;;;;;;;;;;5029488;28;19971;-66
2023/12/25 07:14:14;;;;;;;;;;;;;;;;;;5024258;28;19921;-67
2023/12/25 07:16:39;;;;;;;;;;;;;;;;;;5029794;28;19918;-66
2023/12/25 07:19:04;;;;;;;;;;;;;;;;;;5028897;28;19922;-66
2023/12/25 07:21:30;;;;;;;;;;;;;;;;;;5028215;28;20484;-67
2023/12/25 07:23:56;;;;;;;;;;;;;;;;;;5021053;28;19924;-66
2023/12/25 07:26:21;;;;;;;;;;;;;;;;;;5028850;28;20370;-67
2023/12/25 07:28:47;;;;;;;;;;;;;;;;;;5033103;28;19916;-66
2023/12/25 07:31:12;;;;;;;;;;;;;;;;;;5033908;28;20247;-67
2023/12/25 07:33:38;;;;;;;;;;;;;;;;;;5033478;28;20432;-66
2023/12/25 07:36:03;;;;;;;;;;;;;;;;;;5032969;28;19932;-66
2023/12/25 07:38:29;;;;;;;;;;;;;;;;;;5026873;28;19922;-66
2023/12/25 07:40:54;;;;;;;;;;;;;;;;;;5030924;28;19921;-67
2023/12/25 07:43:19;;;;;;;;;;;;;;;;;;5033273;28;19940;-67
2023/12/25 07:45:44;;;;;;;;;;;;;;;;;;5030504;28;20448;-67
2023/12/25 07:48:09;;;;;;;;;;;;;;;;;;5032526;28;19958;-67
2023/12/25 07:50:34;;;;;;;;;;;;;;;;;;5033059;28;19948;-67
2023/12/25 07:52:59;;;;;;;;;;;;;;;;;;5032968;28;19927;-67
2023/12/25 07:55:24;;;;;;;;;;;;;;;;;;5027148;28;19940;-67
2023/12/25 07:57:49;;;;;;;;;;;;;;;;;;5032942;28;19921;-68
2023/12/25 08:00:14;;;;;;;;;;;;;;;;;;5029858;28;20334;-67
2023/12/25 08:02:39;;;;;;;;;;;;;;;;;;5032482;28;19917;-67
2023/12/25 08:05:05;;;;;;;;;;;;;;;;;;5030562;28;19917;-69
2023/12/25 08:07:30;;;;;;;;;;;;;;;;;;5026971;28;19925;-68
2023/12/25 08:09:55;;;;;;;;;;;;;;;;;;5028827;28;20000;-68
2023/12/25 08:12:20;;;;;;;;;;;;;;;;;;5025381;28;19925;-68
2023/12/25 08:14:45;;;;;;;;;;;;;;;;;;5031992;28;19975;-68
2023/12/25 08:17:10;;;;;;;;;;;;;;;;;;5022617;28;20369;-68
2023/12/25 08:19:36;;;;;;;;;;;;;;;;;;5024616;28;19918;-68
2023/12/25 08:22:01;;;;;;;;;;;;;;;;;;5023665;28;20058;-70
2023/12/25 08:24:26;;;;;;;;;;;;;;;;;;5014846;28;20247;-67
2023/12/25 08:26:51;;;;;;;;;;;;;;;;;;5028955;28;20008;-67
2023/12/25 08:29:16;;;;;;;;;;;;;;;;;;5019401;28;19921;-67
2023/12/25 08:31:41;;;;;;;;;;;;;;;;;;5026056;28;20401;-67
2023/12/25 08:34:06;;;;;;;;;;;;;;;;;;5027836;28;19921;-68
2023/12/25 08:36:31;;;;;;;;;;;;;;;;;;5027263;28;19929;-67
2023/12/25 08:38:56;;;;;;;;;;;;;;;;;;5018211;28;19952;-67
2023/12/25 08:41:21;;;;;;;;;;;;;;;;;;5030722;28;19982;-67
2023/12/25 08:43:47;;;;;;;;;;;;;;;;;;5018123;28;20400;-67
2023/12/25 08:46:12;;;;;;;;;;;;;;;;;;5024759;28;19933;-67
2023/12/25 08:48:37;;;;;;;;;;;;;;;;;;5026069;28;20410;-67
2023/12/25 08:51:02;;;;;;;;;;;;;;;;;;5030194;28;19963;-67
2023/12/25 08:53:27;;;;;;;;;;;;;;;;;;5025826;28;19960;-67
2023/12/25 08:55:52;;;;;;;;;;;;;;;;;;5026577;28;20004;-67
2023/12/25 08:58:17;;;;;;;;;;;;;;;;;;5018678;28;20015;-67
2023/12/25 09:00:42;;;;;;;;;;;;;;;;;;5017985;28;19921;-67
2023/12/25 09:03:08;;;;;;;;;;;;;;;;;;5019497;28;19928;-67
2023/12/25 09:05:33;;;;;;;;;;;;;;;;;;5021217;28;20420;-67
2023/12/25 09:07:58;;;;;;;;;;;;;;;;;;5022459;28;19925;-67
2023/12/25 09:10:23;;;;;;;;;;;;;;;;;;5026403;28;19975;-67
2023/12/25 09:12:50;;;;;;;;;;;;;;;;;;5024531;28;19917;-67
2023/12/25 09:15:16;;;;;;;;;;;;;;;;;;5019573;28;19924;-67
2023/12/25 09:17:41;;;;;;;;;;;;;;;;;;5011080;28;20371;-67
2023/12/25 09:20:06;;;;;;;;;;;;;;;;;;5016319;28;19922;-68
2023/12/25 09:22:31;;;;;;;;;;;;;;;;;;5012820;28;19970;-67
2023/12/25 09:24:56;;;;;;;;;;;;;;;;;;5012618;28;20048;-67
2023/12/25 09:27:22;;;;;;;;;;;;;;;;;;5011904;28;19926;-67
2023/12/25 09:29:47;;;;;;;;;;;;;;;;;;5017261;28;19983;-67
2023/12/25 09:32:12;;;;;;;;;;;;;;;;;;5014709;28;19983;-68
2023/12/25 09:34:37;;;;;;;;;;;;;;;;;;5017225;28;20344;-67
2023/12/25 09:37:02;;;;;;;;;;;;;;;;;;5026997;28;19921;-68
2023/12/25 09:39:28;;;;;;;;;;;;;;;;;;5021667;28;20523;-69
2023/12/25 09:41:53;;;;;;;;;;;;;;;;;;5012667;28;19944;-68
2023/12/25 09:44:18;;;;;;;;;;;;;;;;;;5010414;28;20299;-68
2023/12/25 09:46:43;;;;;;;;;;;;;;;;;;5023123;28;19932;-68
2023/12/25 09:49:08;;;;;;;;;;;;;;;;;;5028907;28;20384;-68
2023/12/25 09:51:33;;;;;;;;;;;;;;;;;;5030597;28;19921;-68
2023/12/25 09:53:58;;;;;;;;;;;;;;;;;;5023359;28;19925;-68
2023/12/25 09:56:24;;;;;;;;;;;;;;;;;;5024386;28;19960;-68
2023/12/25 09:58:49;;;;;;;;;;;;;;;;;;5025768;28;19941;-68
2023/12/25 10:01:14;;;;;;;;;;;;;;;;;;5020282;28;19925;-68
2023/12/25 10:03:39;;;;;;;;;;;;;;;;;;5021573;28;19929;-68
2023/12/25 10:06:04;;;;;;;;;;;;;;;;;;5021671;28;19925;-68
2023/12/25 10:08:30;;;;;;;;;;;;;;;;;;5013894;28;19921;-68
2023/12/25 10:10:55;;;;;;;;;;;;;;;;;;5017381;28;19925;-68
2023/12/25 10:13:20;;;;;;;;;;;;;;;;;;5020097;28;20007;-68
2023/12/25 10:15:45;;;;;;;;;;;;;;;;;;5022221;28;19928;-68
2023/12/25 10:18:10;;;;;;;;;;;;;;;;;;5021430;28;19945;-68
2023/12/25 10:20:35;;;;;;;;;;;;;;;;;;5010395;28;19922;-68
2023/12/25 10:23:00;;;;;;;;;;;;;;;;;;5011715;28;20043;-68
2023/12/25 10:25:27;;;;;;;;;;;;;;;;;;5012645;28;19944;-68
2023/12/25 10:27:52;;;;;;;;;;;;;;;;;;5011022;28;19918;-68
2023/12/25 10:30:17;;;;;;;;;;;;;;;;;;5011547;28;20012;-68
2023/12/25 10:32:42;;;;;;;;;;;;;;;;;;5013712;28;19918;-68
2023/12/25 10:35:07;;;;;;;;;;;;;;;;;;5009572;28;20432;-68
2023/12/25 10:37:32;;;;;;;;;;;;;;;;;;5018125;28;19929;-68
2023/12/25 10:39:57;;;;;;;;;;;;;;;;;;5013165;28;20405;-67
2023/12/25 10:42:22;;;;;;;;;;;;;;;;;;5015555;28;19921;-68
2023/12/25 10:44:47;;;;;;;;;;;;;;;;;;5013601;28;19971;-68
2023/12/25 10:47:13;;;;;;;;;;;;;;;;;;5019320;28;19925;-68
2023/12/25 10:49:38;;;;;;;;;;;;;;;;;;5022866;28;20372;-68
2023/12/25 10:52:03;;;;;;;;;;;;;;;;;;5010667;28;19926;-68
2023/12/25 10:54:29;;;;;;;;;;;;;;;;;;5017348;28;19927;-68
2023/12/25 10:56:54;;;;;;;;;;;;;;;;;;5014341;28;19922;-68
2023/12/25 10:59:19;;;;;;;;;;;;;;;;;;5019659;28;19925;-68
2023/12/25 11:01:47;;;;;;;;;;;;;;;;;;5013376;28;19921;-68
2023/12/25 11:04:12;;;;;;;;;;;;;;;;;;5011880;28;19921;-68
2023/12/25 11:06:37;;;;;;;;;;;;;;;;;;5012678;28;19937;-68
2023/12/25 11:09:04;;;;;;;;;;;;;;;;;;5013140;28;19926;-68
2023/12/25 11:11:29;;;;;;;;;;;;;;;;;;5019979;28;20314;-68
2023/12/25 11:13:55;;;;;;;;;;;;;;;;;;5023178;28;20297;-68
2023/12/25 11:16:20;;;;;;;;;;;;;;;;;;5010622;28;19921;-68
2023/12/25 11:18:45;;;;;;;;;;;;;;;;;;5008483;28;19921;-68
2023/12/25 11:21:11;;;;;;;;;;;;;;;;;;5018968;28;19967;-68
2023/12/25 11:23:37;;;;;;;;;;;;;;;;;;5017457;28;19921;-68
2023/12/25 11:26:03;;;;;;;;;;;;;;;;;;5015165;28;19948;-68
2023/12/25 11:28:28;;;;;;;;;;;;;;;;;;5011499;28;19921;-68
2023/12/25 11:30:54;;;;;;;;;;;;;;;;;;5014284;28;19926;-68
2023/12/25 11:33:19;;;;;;;;;;;;;;;;;;5012150;28;19929;-68
2023/12/25 11:35:44;;;;;;;;;;;;;;;;;;5014678;28;19944;-68
2023/12/25 11:38:09;;;;;;;;;;;;;;;;;;5022774;28;19948;-72
2023/12/25 11:40:34;;;;;;;;;;;;;;;;;;5023764;28;19955;-72
2023/12/25 11:43:00;;;;;;;;;;;;;;;;;;5010696;28;20016;-72
2023/12/25 11:45:25;;;;;;;;;;;;;;;;;;5012275;28;19921;-72
2023/12/25 11:47:51;;;;;;;;;;;;;;;;;;5020920;28;19916;-72
2023/12/25 11:50:16;;;;;;;;;;;;;;;;;;5012520;28;19925;-72
2023/12/25 11:52:41;;;;;;;;;;;;;;;;;;5025922;28;19982;-72
2023/12/25 11:55:06;;;;;;;;;;;;;;;;;;5016442;28;19922;-72
2023/12/25 11:57:31;;;;;;;;;;;;;;;;;;5014318;28;20267;-72
2023/12/25 11:59:56;;;;;;;;;;;;;;;;;;5012251;28;19945;-71
2023/12/25 12:02:22;;;;;;;;;;;;;;;;;;5020447;28;20007;-72
2023/12/25 12:04:47;;;;;;;;;;;;;;;;;;5013902;28;19945;-72
2023/12/25 12:07:13;;;;;;;;;;;;;;;;;;5024449;28;19925;-72
2023/12/25 12:09:38;;;;;;;;;;;;;;;;;;5014688;28;19976;-72
2023/12/25 12:12:03;;;;;;;;;;;;;;;;;;5011841;28;19925;-72
2023/12/25 12:14:28;;;;;;;;;;;;;;;;;;5008731;28;19926;-72
2023/12/25 12:16:54;;;;;;;;;;;;;;;;;;5014621;28;19929;-72
2023/12/25 12:19:19;;;;;;;;;;;;;;;;;;5023997;28;19976;-72
2023/12/25 12:21:44;;;;;;;;;;;;;;;;;;5022604;28;19932;-72
2023/12/25 12:24:09;;;;;;;;;;;;;;;;;;5017841;28;19968;-72
2023/12/25 12:26:34;;;;;;;;;;;;;;;;;;5017358;28;19929;-72
2023/12/25 12:28:59;;;;;;;;;;;;;;;;;;5012726;28;19980;-71
2023/12/25 12:31:25;;;;;;;;;;;;;;;;;;5012643;28;19929;-72
2023/12/25 12:33:50;;;;;;;;;;;;;;;;;;5016356;28;20388;-71
2023/12/25 12:36:15;;;;;;;;;;;;;;;;;;5012789;28;19921;-71
2023/12/25 12:38:40;;;;;;;;;;;;;;;;;;5017930;28;19921;-71
2023/12/25 12:41:05;;;;;;;;;;;;;;;;;;5021373;28;19976;-72
2023/12/25 12:43:30;;;;;;;;;;;;;;;;;;5023883;28;19943;-72
2023/12/25 12:45:56;;;;;;;;;;;;;;;;;;5018585;28;19926;-72
2023/12/25 12:48:21;;;;;;;;;;;;;;;;;;5015040;28;20008;-72
2023/12/25 12:50:46;;;;;;;;;;;;;;;;;;5014682;28;19969;-71
2023/12/25 12:53:11;;;;;;;;;;;;;;;;;;5015733;28;19950;-71
2023/12/25 12:55:36;;;;;;;;;;;;;;;;;;5016791;28;20349;-72
2023/12/25 12:58:01;;;;;;;;;;;;;;;;;;5026148;28;19929;-73
2023/12/25 13:00:26;;;;;;;;;;;;;;;;;;5019351;28;19922;-72
2023/12/25 13:02:52;;;;;;;;;;;;;;;;;;5012729;28;19928;-72
2023/12/25 13:05:17;;;;;;;;;;;;;;;;;;5016311;28;20008;-72
2023/12/25 13:07:43;;;;;;;;;;;;;;;;;;5024518;28;20021;-70
2023/12/25 13:10:08;;;;;;;;;;;;;;;;;;5021606;28;20008;-72
2023/12/25 13:12:33;;;;;;;;;;;;;;;;;;5027330;28;20030;-72
2023/12/25 13:14:58;;;;;;;;;;;;;;;;;;5019197;28;19928;-72
2023/12/25 13:17:23;;;;;;;;;;;;;;;;;;5019494;28;20497;-72
2023/12/25 13:19:49;;;;;;;;;;;;;;;;;;5016971;28;19924;-72
2023/12/25 13:22:14;;;;;;;;;;;;;;;;;;5028016;28;19925;-72
2023/12/25 13:24:39;;;;;;;;;;;;;;;;;;5031248;28;19918;-71
2023/12/25 13:27:05;;;;;;;;;;;;;;;;;;5029502;28;20305;-72
2023/12/25 13:29:30;;;;;;;;;;;;;;;;;;5013057;28;19921;-72
2023/12/25 13:31:55;;;;;;;;;;;;;;;;;;5023913;28;19925;-72
2023/12/25 13:34:21;;;;;;;;;;;;;;;;;;5022485;28;19929;-72
2023/12/25 13:36:46;;;;;;;;;;;;;;;;;;5019835;28;19932;-72
2023/12/25 13:39:11;;;;;;;;;;;;;;;;;;5021714;28;19931;-72
2023/12/25 13:41:36;;;;;;;;;;;;;;;;;;5013600;28;19924;-72
2023/12/25 13:44:01;;;;;;;;;;;;;;;;;;5017279;28;20008;-72
2023/12/25 13:46:27;;;;;;;;;;;;;;;;;;5017150;28;20354;-72
2023/12/25 13:48:52;;;;;;;;;;;;;;;;;;5012644;28;20367;-72
2023/12/25 13:51:17;;;;;;;;;;;;;;;;;;5019404;28;20438;-72
2023/12/25 13:53:42;;;;;;;;;;;;;;;;;;5018299;28;19956;-72
2023/12/25 13:56:07;;;;;;;;;;;;;;;;;;5025469;28;20362;-72
2023/12/25 13:58:32;;;;;;;;;;;;;;;;;;5021595;28;19925;-72
2023/12/25 14:00:57;;;;;;;;;;;;;;;;;;5013803;28;19929;-72
2023/12/25 14:03:23;;;;;;;;;;;;;;;;;;5014631;28;19921;-73
2023/12/25 14:05:48;;;;;;;;;;;;;;;;;;5021104;28;20301;-73
2023/12/25 14:08:13;;;;;;;;;;;;;;;;;;5021408;28;19945;-73
2023/12/25 14:10:38;;;;;;;;;;;;;;;;;;5019472;28;19921;-72
2023/12/25 14:13:04;;;;;;;;;;;;;;;;;;5017282;28;19936;-72
2023/12/25 14:15:29;;;;;;;;;;;;;;;;;;5016193;28;20447;-73
2023/12/25 14:17:54;;;;;;;;;;;;;;;;;;5017131;28;19920;-72
2023/12/25 14:20:19;;;;;;;;;;;;;;;;;;5014134;28;19936;-73
2023/12/25 14:22:44;;;;;;;;;;;;;;;;;;5019862;28;20377;-72
2023/12/25 14:25:12;;;;;;;;;;;;;;;;;;5016282;28;19952;-72
2023/12/25 14:27:37;;;;;;;;;;;;;;;;;;5017081;28;20411;-72
2023/12/25 14:30:03;;;;;;;;;;;;;;;;;;5013597;28;19995;-73
2023/12/25 14:32:29;;;;;;;;;;;;;;;;;;5021782;28;19921;-72
2023/12/25 14:34:54;;;;;;;;;;;;;;;;;;5011154;28;19925;-73
2023/12/25 14:37:19;;;;;;;;;;;;;;;;;;5011566;28;19929;-72
2023/12/25 14:39:45;;;;;;;;;;;;;;;;;;5015282;28;19931;-73
2023/12/25 14:42:10;;;;;;;;;;;;;;;;;;5006596;28;20025;-72
2023/12/25 14:44:35;;;;;;;;;;;;;;;;;;5011495;28;19921;-73
2023/12/25 14:47:00;;;;;;;;;;;;;;;;;;5012014;28;20274;-72
2023/12/25 14:49:25;;;;;;;;;;;;;;;;;;5008310;28;19929;-72
2023/12/25 14:51:51;;;;;;;;;;;;;;;;;;5020848;28;20366;-72
2023/12/25 14:54:16;;;;;;;;;;;;;;;;;;5012183;28;19933;-72
2023/12/25 14:56:42;;;;;;;;;;;;;;;;;;5011813;28;20313;-72
2023/12/25 14:59:07;;;;;;;;;;;;;;;;;;5016730;28;19921;-72
2023/12/25 15:01:32;;;;;;;;;;;;;;;;;;5010531;28;19967;-72
2023/12/25 15:03:57;;;;;;;;;;;;;;;;;;5014261;28;19921;-72
2023/12/25 15:06:23;;;;;;;;;;;;;;;;;;5003284;28;19957;-73
2023/12/25 15:08:48;;;;;;;;;;;;;;;;;;5005217;28;20309;-72
2023/12/25 15:11:13;;;;;;;;;;;;;;;;;;5014444;28;20444;-72
2023/12/25 15:13:38;;;;;;;;;;;;;;;;;;5018051;28;19928;-72
2023/12/25 15:16:03;;;;;;;;;;;;;;;;;;5013976;28;19921;-72
2023/12/25 15:18:30;;;;;;;;;;;;;;;;;;5023757;28;20287;-72
2023/12/25 15:20:55;;;;;;;;;;;;;;;;;;5015054;28;20298;-72
2023/12/25 15:23:20;;;;;;;;;;;;;;;;;;5012865;28;19929;-72
2023/12/25 15:25:45;;;;;;;;;;;;;;;;;;5002064;28;19960;-72
2023/12/25 15:28:10;;;;;;;;;;;;;;;;;;5015804;28;19928;-72
2023/12/25 15:30:35;;;;;;;;;;;;;;;;;;5007204;28;19928;-71
2023/12/25 15:33:01;;;;;;;;;;;;;;;;;;5012783;28;19937;-70
2023/12/25 15:35:26;;;;;;;;;;;;;;;;;;5011142;28;19933;-71
2023/12/25 15:37:51;;;;;;;;;;;;;;;;;;5017980;28;20286;-70
2023/12/25 15:40:16;;;;;;;;;;;;;;;;;;5016776;28;19921;-71
2023/12/25 15:42:42;;;;;;;;;;;;;;;;;;5020159;28;19921;-71
2023/12/25 15:45:08;;;;;;;;;;;;;;;;;;5014901;28;19921;-71
2023/12/25 15:47:34;;;;;;;;;;;;;;;;;;5012510;28;20017;-71
2023/12/25 15:49:59;;;;;;;;;;;;;;;;;;5015569;28;19948;-71
2023/12/25 15:52:24;;;;;;;;;;;;;;;;;;5021226;28;20022;-73
2023/12/25 15:54:50;;;;;;;;;;;;;;;;;;5018957;28;20022;-72
2023/12/25 15:57:15;;;;;;;;;;;;;;;;;;5025174;28;19960;-73
2023/12/25 15:59:40;;;;;;;;;;;;;;;;;;5019347;28;19930;-73
2023/12/25 16:02:05;;;;;;;;;;;;;;;;;;5010573;28;19921;-72
2023/12/25 16:04:30;;;;;;;;;;;;;;;;;;5021267;28;19928;-71
2023/12/25 16:06:56;;;;;;;;;;;;;;;;;;5023650;28;19948;-71
2023/12/25 16:09:21;;;;;;;;;;;;;;;;;;5014001;28;20025;-71
2023/12/25 16:11:46;;;;;;;;;;;;;;;;;;5017083;28;19921;-71
2023/12/25 16:14:11;;;;;;;;;;;;;;;;;;5012659;28;19996;-72
2023/12/25 16:16:37;;;;;;;;;;;;;;;;;;5016899;28;20500;-71
2023/12/25 16:19:02;;;;;;;;;;;;;;;;;;5013105;28;19925;-71
2023/12/25 16:21:27;;;;;;;;;;;;;;;;;;5028973;28;19925;-70
2023/12/25 16:23:52;;;;;;;;;;;;;;;;;;5023621;28;19917;-72
2023/12/25 16:26:17;;;;;;;;;;;;;;;;;;5031330;28;19925;-71
2023/12/25 16:28:42;;;;;;;;;;;;;;;;;;5028539;28;19933;-71
2023/12/25 16:31:07;;;;;;;;;;;;;;;;;;5017661;28;20286;-71